sensor_id;sensor_type;location;lat;lon;timestamp;P1;durP1;ratioP1;P2;durP2;ratioP2
64242;SDS011;50573;51.512;5.386;2023-02-24T00:00:51;43.50;;;8.23;;
64242;SDS011;50573;51.512;5.386;2023-02-24T00:10:55;45.17;;;7.57;;
64242;SDS011;50573;51.512;5.386;2023-02-24T00:21:04;45.28;;;7.68;;
64242;SDS011;50573;51.512;5.386;2023-02-24T00:31:12;37.05;;;7.45;;
64242;SDS011;50573;51.512;5.386;2023-02-24T00:41:18;38.45;;;6.95;;
64242;SDS011;50573;51.512;5.386;2023-02-24T00:51:25;37.13;;;6.63;;
64242;SDS011;50573;51.512;5.386;2023-02-24T01:01:30;36.47;;;6.45;;
64242;SDS011;50573;51.512;5.386;2023-02-24T01:11:35;47.90;;;7.47;;
64242;SDS011;50573;51.512;5.386;2023-02-24T01:21:53;28.35;;;5.72;;
64242;SDS011;50573;51.512;5.386;2023-02-24T01:31:58;29.23;;;5.40;;
64242;SDS011;50573;51.512;5.386;2023-02-24T01:42:05;28.45;;;5.53;;
64242;SDS011;50573;51.512;5.386;2023-02-24T01:52:09;28.30;;;6.03;;
64242;SDS011;50573;51.512;5.386;2023-02-24T02:02:16;33.88;;;6.88;;
64242;SDS011;50573;51.512;5.386;2023-02-24T02:12:21;32.83;;;6.18;;
64242;SDS011;50573;51.512;5.386;2023-02-24T02:22:32;26.57;;;5.00;;
64242;SDS011;50573;51.512;5.386;2023-02-24T02:32:51;25.27;;;5.00;;
64242;SDS011;50573;51.512;5.386;2023-02-24T02:43:25;23.20;;;5.47;;
64242;SDS011;50573;51.512;5.386;2023-02-24T02:53:34;27.15;;;4.93;;
64242;SDS011;50573;51.512;5.386;2023-02-24T03:03:45;24.45;;;4.70;;
64242;SDS011;50573;51.512;5.386;2023-02-24T03:13:53;24.20;;;5.32;;
64242;SDS011;50573;51.512;5.386;2023-02-24T03:24:01;22.35;;;5.20;;
64242;SDS011;50573;51.512;5.386;2023-02-24T03:34:08;22.30;;;4.93;;
64242;SDS011;50573;51.512;5.386;2023-02-24T03:44:17;21.98;;;4.80;;
64242;SDS011;50573;51.512;5.386;2023-02-24T03:54:23;23.03;;;5.03;;
64242;SDS011;50573;51.512;5.386;2023-02-24T04:04:41;24.52;;;5.57;;
64242;SDS011;50573;51.512;5.386;2023-02-24T04:15:00;31.15;;;4.75;;
64242;SDS011;50573;51.512;5.386;2023-02-24T04:25:11;23.35;;;5.22;;
64242;SDS011;50573;51.512;5.386;2023-02-24T04:35:18;25.10;;;4.75;;
64242;SDS011;50573;51.512;5.386;2023-02-24T04:45:26;27.55;;;4.45;;
64242;SDS011;50573;51.512;5.386;2023-02-24T04:55:32;22.58;;;5.03;;
64242;SDS011;50573;51.512;5.386;2023-02-24T05:05:46;21.60;;;4.53;;
64242;SDS011;50573;51.512;5.386;2023-02-24T05:15:52;29.17;;;5.28;;
64242;SDS011;50573;51.512;5.386;2023-02-24T05:25:59;21.30;;;4.82;;
64242;SDS011;50573;51.512;5.386;2023-02-24T05:36:04;19.48;;;4.88;;
64242;SDS011;50573;51.512;5.386;2023-02-24T05:46:11;19.50;;;5.30;;
64242;SDS011;50573;51.512;5.386;2023-02-24T05:56:14;18.90;;;5.93;;
64242;SDS011;50573;51.512;5.386;2023-02-24T06:16:23;21.63;;;5.10;;
64242;SDS011;50573;51.512;5.386;2023-02-24T06:26:28;29.52;;;5.78;;
64242;SDS011;50573;51.512;5.386;2023-02-24T06:36:34;20.17;;;4.72;;
64242;SDS011;50573;51.512;5.386;2023-02-24T06:46:38;20.27;;;5.60;;
64242;SDS011;50573;51.512;5.386;2023-02-24T06:56:42;19.38;;;4.68;;
64242;SDS011;50573;51.512;5.386;2023-02-24T07:06:47;30.98;;;4.95;;
64242;SDS011;50573;51.512;5.386;2023-02-24T07:16:52;30.48;;;4.40;;
64242;SDS011;50573;51.512;5.386;2023-02-24T07:26:58;24.73;;;4.82;;
64242;SDS011;50573;51.512;5.386;2023-02-24T07:37:02;24.58;;;3.63;;
64242;SDS011;50573;51.512;5.386;2023-02-24T07:47:10;22.65;;;3.28;;
64242;SDS011;50573;51.512;5.386;2023-02-24T07:57:13;24.40;;;4.60;;
64242;SDS011;50573;51.512;5.386;2023-02-24T08:07:20;16.58;;;3.13;;
64242;SDS011;50573;51.512;5.386;2023-02-24T08:17:26;15.50;;;3.10;;
64242;SDS011;50573;51.512;5.386;2023-02-24T08:27:31;16.73;;;3.45;;
64242;SDS011;50573;51.512;5.386;2023-02-24T08:37:39;16.65;;;3.30;;
64242;SDS011;50573;51.512;5.386;2023-02-24T08:47:48;16.17;;;3.67;;
64242;SDS011;50573;51.512;5.386;2023-02-24T08:57:54;22.50;;;3.83;;
64242;SDS011;50573;51.512;5.386;2023-02-24T09:08:03;17.27;;;3.28;;
64242;SDS011;50573;51.512;5.386;2023-02-24T09:18:06;25.50;;;3.72;;
64242;SDS011;50573;51.512;5.386;2023-02-24T09:28:16;25.90;;;4.35;;
64242;SDS011;50573;51.512;5.386;2023-02-24T09:38:21;22.90;;;3.78;;
64242;SDS011;50573;51.512;5.386;2023-02-24T09:48:50;18.58;;;3.55;;
64242;SDS011;50573;51.512;5.386;2023-02-24T09:59:07;23.65;;;4.18;;
64242;SDS011;50573;51.512;5.386;2023-02-24T10:09:23;25.08;;;4.65;;
64242;SDS011;50573;51.512;5.386;2023-02-24T10:19:34;11.98;;;4.00;;
64242;SDS011;50573;51.512;5.386;2023-02-24T10:29:42;18.17;;;4.30;;
64242;SDS011;50573;51.512;5.386;2023-02-24T10:39:56;16.00;;;4.95;;
64242;SDS011;50573;51.512;5.386;2023-02-24T10:50:03;26.73;;;5.68;;
64242;SDS011;50573;51.512;5.386;2023-02-24T11:00:15;21.23;;;4.50;;
64242;SDS011;50573;51.512;5.386;2023-02-24T11:10:53;22.35;;;5.65;;
64242;SDS011;50573;51.512;5.386;2023-02-24T11:21:08;20.95;;;6.18;;
64242;SDS011;50573;51.512;5.386;2023-02-24T11:31:21;27.08;;;7.00;;
64242;SDS011;50573;51.512;5.386;2023-02-24T11:41:34;24.52;;;5.93;;
64242;SDS011;50573;51.512;5.386;2023-02-24T11:51:43;24.33;;;6.82;;
64242;SDS011;50573;51.512;5.386;2023-02-24T12:01:47;17.58;;;6.10;;
64242;SDS011;50573;51.512;5.386;2023-02-24T12:11:55;19.77;;;6.03;;
64242;SDS011;50573;51.512;5.386;2023-02-24T12:22:04;18.40;;;7.85;;
64242;SDS011;50573;51.512;5.386;2023-02-24T12:32:18;28.88;;;8.32;;
64242;SDS011;50573;51.512;5.386;2023-02-24T12:42:27;21.27;;;7.57;;
64242;SDS011;50573;51.512;5.386;2023-02-24T12:52:44;17.25;;;7.82;;
64242;SDS011;50573;51.512;5.386;2023-02-24T13:02:55;21.63;;;7.53;;
64242;SDS011;50573;51.512;5.386;2023-02-24T13:13:09;20.70;;;9.52;;
64242;SDS011;50573;51.512;5.386;2023-02-24T13:23:17;22.25;;;9.27;;
64242;SDS011;50573;51.512;5.386;2023-02-24T13:33:27;22.40;;;10.60;;
64242;SDS011;50573;51.512;5.386;2023-02-24T13:43:32;20.30;;;10.77;;
64242;SDS011;50573;51.512;5.386;2023-02-24T13:53:43;14.85;;;9.75;;
64242;SDS011;50573;51.512;5.386;2023-02-24T14:04:04;18.25;;;8.90;;
64242;SDS011;50573;51.512;5.386;2023-02-24T14:14:17;19.23;;;9.20;;
64242;SDS011;50573;51.512;5.386;2023-02-24T14:24:21;18.05;;;8.02;;
64242;SDS011;50573;51.512;5.386;2023-02-24T14:34:27;15.37;;;8.13;;
64242;SDS011;50573;51.512;5.386;2023-02-24T14:44:38;17.10;;;7.30;;
64242;SDS011;50573;51.512;5.386;2023-02-24T14:54:45;16.92;;;7.07;;
64242;SDS011;50573;51.512;5.386;2023-02-24T15:04:52;18.58;;;6.47;;
64242;SDS011;50573;51.512;5.386;2023-02-24T15:15:00;12.43;;;6.60;;
64242;SDS011;50573;51.512;5.386;2023-02-24T15:25:11;15.90;;;8.63;;
64242;SDS011;50573;51.512;5.386;2023-02-24T15:35:23;24.58;;;5.18;;
64242;SDS011;50573;51.512;5.386;2023-02-24T15:45:27;23.10;;;3.45;;
64242;SDS011;50573;51.512;5.386;2023-02-24T15:55:34;18.85;;;3.80;;
64242;SDS011;50573;51.512;5.386;2023-02-24T16:05:37;18.77;;;4.53;;
64242;SDS011;50573;51.512;5.386;2023-02-24T16:15:42;25.90;;;3.58;;
64242;SDS011;50573;51.512;5.386;2023-02-24T16:25:49;28.08;;;3.97;;
64242;SDS011;50573;51.512;5.386;2023-02-24T16:35:59;21.58;;;4.07;;
64242;SDS011;50573;51.512;5.386;2023-02-24T16:46:05;21.38;;;2.75;;
64242;SDS011;50573;51.512;5.386;2023-02-24T16:56:15;21.10;;;5.45;;
64242;SDS011;50573;51.512;5.386;2023-02-24T17:06:22;20.60;;;2.80;;
64242;SDS011;50573;51.512;5.386;2023-02-24T17:16:28;26.80;;;3.38;;
64242;SDS011;50573;51.512;5.386;2023-02-24T17:26:31;24.13;;;3.03;;
64242;SDS011;50573;51.512;5.386;2023-02-24T17:36:36;11.30;;;2.35;;
64242;SDS011;50573;51.512;5.386;2023-02-24T17:46:39;10.67;;;2.33;;
64242;SDS011;50573;51.512;5.386;2023-02-24T17:56:43;11.25;;;2.28;;
64242;SDS011;50573;51.512;5.386;2023-02-24T18:06:47;10.63;;;1.70;;
64242;SDS011;50573;51.512;5.386;2023-02-24T18:16:52;14.68;;;2.78;;
64242;SDS011;50573;51.512;5.386;2023-02-24T18:26:55;17.02;;;3.13;;
64242;SDS011;50573;51.512;5.386;2023-02-24T18:37:00;16.42;;;3.70;;
64242;SDS011;50573;51.512;5.386;2023-02-24T18:47:03;10.60;;;1.80;;
64242;SDS011;50573;51.512;5.386;2023-02-24T18:57:11;17.48;;;2.63;;
64242;SDS011;50573;51.512;5.386;2023-02-24T19:17:19;22.75;;;4.43;;
64242;SDS011;50573;51.512;5.386;2023-02-24T19:27:22;21.30;;;4.83;;
64242;SDS011;50573;51.512;5.386;2023-02-24T19:37:27;23.50;;;3.95;;
64242;SDS011;50573;51.512;5.386;2023-02-24T19:47:30;21.60;;;2.50;;
64242;SDS011;50573;51.512;5.386;2023-02-24T19:57:34;28.13;;;4.25;;
64242;SDS011;50573;51.512;5.386;2023-02-24T20:07:38;30.55;;;4.25;;
64242;SDS011;50573;51.512;5.386;2023-02-24T20:17:43;19.83;;;3.70;;
64242;SDS011;50573;51.512;5.386;2023-02-24T20:27:49;17.63;;;3.28;;
64242;SDS011;50573;51.512;5.386;2023-02-24T20:37:53;19.13;;;3.78;;
64242;SDS011;50573;51.512;5.386;2023-02-24T20:47:56;14.80;;;3.80;;
64242;SDS011;50573;51.512;5.386;2023-02-24T20:58:01;14.93;;;4.15;;
64242;SDS011;50573;51.512;5.386;2023-02-24T21:08:04;21.73;;;4.57;;
64242;SDS011;50573;51.512;5.386;2023-02-24T21:18:09;20.30;;;4.50;;
64242;SDS011;50573;51.512;5.386;2023-02-24T21:28:12;24.13;;;4.27;;
64242;SDS011;50573;51.512;5.386;2023-02-24T21:38:16;28.35;;;6.22;;
64242;SDS011;50573;51.512;5.386;2023-02-24T21:48:19;25.13;;;5.07;;
64242;SDS011;50573;51.512;5.386;2023-02-24T21:58:24;30.65;;;4.20;;
64242;SDS011;50573;51.512;5.386;2023-02-24T22:08:27;23.23;;;4.80;;
64242;SDS011;50573;51.512;5.386;2023-02-24T22:18:31;24.02;;;5.03;;
64242;SDS011;50573;51.512;5.386;2023-02-24T22:28:35;16.45;;;3.13;;
64242;SDS011;50573;51.512;5.386;2023-02-24T22:38:41;24.23;;;4.32;;
64242;SDS011;50573;51.512;5.386;2023-02-24T22:48:46;18.08;;;3.38;;
64242;SDS011;50573;51.512;5.386;2023-02-24T22:58:52;12.68;;;2.38;;
64242;SDS011;50573;51.512;5.386;2023-02-24T23:19:01;15.48;;;3.05;;
64242;SDS011;50573;51.512;5.386;2023-02-24T23:29:05;26.92;;;5.57;;
64242;SDS011;50573;51.512;5.386;2023-02-24T23:39:12;19.38;;;3.42;;
64242;SDS011;50573;51.512;5.386;2023-02-24T23:49:16;16.13;;;3.55;;
64242;SDS011;50573;51.512;5.386;2023-02-24T23:59:20;15.80;;;2.60;;
